GRZ529 Details

Departure: Vancouver International Airport (CYVR)
Arrival: Sacramento International Airport (KSMF)
Route: YVR05 J5 SEA LMT TUDOR2


Current Weather Information
CYVR 171700Z 15002KT 30SM FEW023 BKN030 OVC069 19/14 A2998 RMK CU1SC5AC3 CU TR SLP152 DENSITY ALT 500FT
KSMF 171753Z 15009G15KT 130V190 10SM CLR 26/14 A2978 RMK AO2 SLP083 T02610144 10261 20172 51010